createdAt,value
2023-04-02T00:01:51.039Z,9.80
2023-04-02T00:04:22.798Z,9.80
2023-04-02T00:07:30.646Z,9.70
2023-04-02T00:09:58.260Z,9.70
2023-04-02T00:12:25.497Z,9.60
2023-04-02T00:14:55.930Z,9.60
2023-04-02T00:17:25.987Z,9.60
2023-04-02T00:19:52.597Z,9.60
2023-04-02T00:22:21.918Z,9.60
2023-04-02T00:24:53.555Z,9.60
2023-04-02T00:27:21.277Z,9.60
2023-04-02T00:29:50.587Z,9.60
2023-04-02T00:32:29.036Z,9.60
2023-04-02T00:34:56.129Z,9.70
2023-04-02T00:37:28.040Z,9.60
2023-04-02T00:40:07.138Z,9.60
2023-04-02T00:42:35.361Z,9.70
2023-04-02T00:45:02.720Z,9.60
2023-04-02T00:47:37.807Z,9.60
2023-04-02T00:50:16.765Z,9.70
2023-04-02T00:52:46.275Z,9.60
2023-04-02T00:55:18.572Z,9.60
2023-04-02T00:57:45.995Z,9.70
2023-04-02T01:00:29.932Z,9.60
2023-04-02T01:03:30.298Z,9.60
2023-04-02T01:06:01.619Z,9.60
2023-04-02T01:09:05.284Z,9.60
2023-04-02T01:11:56.595Z,9.60
2023-04-02T01:14:52.226Z,9.60
2023-04-02T01:17:42.809Z,9.60
2023-04-02T01:20:15.514Z,9.60
2023-04-02T01:23:09.261Z,9.50
2023-04-02T01:25:45.674Z,9.60
2023-04-02T01:28:33.646Z,9.60
2023-04-02T01:31:02.404Z,9.60
2023-04-02T01:33:34.751Z,9.60
2023-04-02T01:36:11.009Z,9.60
2023-04-02T01:38:45.909Z,9.60
2023-04-02T01:41:23.330Z,9.60
2023-04-02T01:43:58.918Z,9.60
2023-04-02T01:46:33.957Z,9.60
2023-04-02T01:49:04.132Z,9.60
2023-04-02T01:51:33.861Z,9.70
2023-04-02T01:54:06.026Z,9.70
2023-04-02T01:56:34.176Z,9.60
2023-04-02T01:59:02.632Z,9.60
2023-04-02T02:01:36.027Z,9.50
2023-04-02T02:04:03.024Z,9.60
2023-04-02T02:06:29.946Z,9.60
2023-04-02T02:09:04.019Z,9.60
2023-04-02T02:11:32.938Z,9.60
2023-04-02T02:14:05.340Z,9.60
2023-04-02T02:16:41.572Z,9.60
2023-04-02T02:19:36.121Z,9.60
2023-04-02T02:22:09.678Z,9.60
2023-04-02T02:24:37.133Z,9.60
2023-04-02T02:27:28.604Z,9.60
2023-04-02T02:30:19.891Z,9.60
2023-04-02T02:33:21.926Z,9.60
2023-04-02T02:36:24.532Z,9.60
2023-04-02T02:39:01.790Z,9.60
2023-04-02T02:41:46.718Z,9.70
2023-04-02T02:44:19.420Z,9.60
2023-04-02T02:46:56.949Z,9.70
2023-04-02T02:49:33.198Z,9.70
2023-04-02T02:52:10.553Z,9.70
2023-04-02T02:54:41.315Z,9.70
2023-04-02T02:57:12.511Z,9.70
2023-04-02T02:59:39.398Z,9.70
2023-04-02T03:02:09.263Z,9.70
2023-04-02T03:04:37.079Z,9.70
2023-04-02T03:07:06.564Z,9.70
2023-04-02T03:09:48.335Z,9.70
2023-04-02T03:12:24.034Z,9.70
2023-04-02T03:15:34.416Z,9.70
2023-04-02T03:18:13.985Z,9.70
2023-04-02T03:20:50.045Z,9.70
2023-04-02T03:23:39.407Z,9.70
2023-04-02T03:26:18.434Z,9.80
2023-04-02T03:29:15.447Z,9.80
2023-04-02T03:31:47.102Z,9.90
2023-04-02T03:34:29.602Z,9.90
2023-04-02T03:37:12.440Z,9.90
2023-04-02T03:39:49.366Z,9.90
2023-04-02T03:42:25.200Z,9.90
2023-04-02T03:45:10.818Z,9.80
2023-04-02T03:47:52.092Z,9.80
2023-04-02T03:50:27.566Z,9.80
2023-04-02T03:52:54.430Z,9.80
2023-04-02T03:55:35.501Z,9.80
2023-04-02T03:58:13.409Z,9.80
2023-04-02T04:00:44.025Z,9.80
2023-04-02T04:03:19.405Z,9.80
2023-04-02T04:05:56.130Z,9.80
2023-04-02T04:08:30.548Z,9.80
2023-04-02T04:11:01.804Z,9.80
2023-04-02T04:13:36.747Z,9.80
2023-04-02T04:16:09.616Z,9.80
2023-04-02T04:19:03.512Z,9.80
2023-04-02T04:21:31.260Z,9.80
2023-04-02T04:24:05.800Z,9.80
2023-04-02T04:26:49.523Z,9.80
2023-04-02T04:29:31.604Z,9.80
2023-04-02T04:32:34.540Z,9.80
2023-04-02T04:35:32.238Z,9.80
2023-04-02T04:38:14.350Z,9.90
2023-04-02T04:40:52.170Z,9.90
2023-04-02T04:43:29.416Z,9.90
2023-04-02T04:46:17.574Z,9.90
2023-04-02T04:48:52.040Z,9.90
2023-04-02T04:51:37.109Z,9.90
2023-04-02T04:54:03.858Z,9.90
2023-04-02T04:56:32.249Z,9.90
2023-04-02T04:59:03.418Z,9.80
2023-04-02T05:01:42.670Z,9.80
2023-04-02T05:04:33.475Z,9.90
2023-04-02T05:07:22.986Z,9.90
2023-04-02T05:10:06.529Z,9.90
2023-04-02T05:12:56.964Z,9.90
2023-04-02T05:15:32.070Z,10.00
2023-04-02T05:18:20.663Z,10.00
2023-04-02T05:20:54.665Z,9.90
2023-04-02T05:23:28.639Z,9.80
2023-04-02T05:26:12.139Z,9.70
2023-04-02T05:28:50.914Z,9.70
2023-04-02T05:31:42.756Z,9.60
2023-04-02T05:34:11.476Z,9.60
2023-04-02T05:36:38.578Z,9.60
2023-04-02T05:39:09.822Z,9.60
2023-04-02T05:41:45.813Z,9.50
2023-04-02T05:44:22.227Z,9.50
2023-04-02T05:46:51.497Z,9.60
2023-04-02T05:49:37.113Z,9.50
2023-04-02T05:52:06.818Z,9.50
2023-04-02T05:54:39.715Z,9.50
2023-04-02T05:57:15.417Z,9.50
2023-04-02T05:59:47.453Z,9.50
2023-04-02T06:02:45.026Z,9.50
2023-04-02T06:05:17.462Z,9.50
2023-04-02T06:07:51.359Z,9.50
2023-04-02T06:10:24.784Z,9.50
2023-04-02T06:12:58.135Z,9.50
2023-04-02T06:15:24.937Z,9.40
2023-04-02T06:17:58.504Z,9.40
2023-04-02T06:20:25.662Z,9.50
2023-04-02T06:23:32.890Z,9.40
2023-04-02T06:26:27.069Z,9.40
2023-04-02T06:29:08.727Z,9.40
2023-04-02T06:31:44.986Z,9.40
2023-04-02T06:34:20.967Z,9.40
2023-04-02T06:36:49.841Z,9.40
2023-04-02T06:39:22.802Z,9.40
2023-04-02T06:42:12.166Z,9.50
2023-04-02T06:44:39.913Z,9.50
2023-04-02T06:47:26.886Z,9.50
2023-04-02T06:50:15.074Z,9.50
2023-04-02T06:52:54.980Z,9.50
2023-04-02T06:55:42.513Z,9.60
2023-04-02T06:58:09.864Z,9.60
2023-04-02T07:00:42.348Z,9.60
2023-04-02T07:03:27.650Z,9.60
2023-04-02T07:05:54.646Z,9.50
2023-04-02T07:08:21.433Z,9.50
2023-04-02T07:10:48.204Z,9.40
2023-04-02T07:13:23.296Z,9.30
2023-04-02T07:15:54.922Z,9.40
2023-04-02T07:18:21.745Z,9.40
2023-04-02T07:20:48.444Z,9.40
2023-04-02T07:23:17.022Z,9.40
2023-04-02T07:25:43.956Z,9.40
2023-04-02T07:28:12.038Z,9.40
2023-04-02T07:30:38.782Z,9.50
2023-04-02T07:33:05.642Z,9.40
2023-04-02T07:35:32.591Z,9.40
2023-04-02T07:37:59.444Z,9.40
2023-04-02T07:40:26.398Z,9.50
2023-04-02T07:42:53.033Z,9.60
2023-04-02T07:45:19.810Z,9.60
2023-04-02T07:47:46.495Z,9.70
2023-04-02T07:50:13.464Z,9.80
2023-04-02T07:52:43.861Z,9.70
2023-04-02T07:55:15.071Z,9.70
2023-04-02T07:57:49.330Z,9.70
2023-04-02T08:00:16.622Z,9.70
2023-04-02T08:02:43.330Z,9.70
2023-04-02T08:05:10.642Z,9.70
2023-04-02T08:07:38.955Z,9.60
2023-04-02T08:10:06.641Z,9.60
2023-04-02T08:12:33.375Z,9.50
2023-04-02T08:15:00.113Z,9.50
2023-04-02T08:17:31.370Z,9.40
2023-04-02T08:20:01.006Z,9.40
2023-04-02T08:22:28.995Z,9.40
2023-04-02T08:24:56.405Z,9.50
2023-04-02T08:27:24.498Z,9.50
2023-04-02T08:29:51.158Z,9.50
2023-04-02T08:32:18.348Z,9.60
2023-04-02T08:34:45.365Z,9.70
2023-04-02T08:37:13.139Z,9.70
2023-04-02T08:39:40.098Z,9.70
2023-04-02T08:42:13.012Z,9.40
2023-04-02T08:45:21.164Z,9.40
2023-04-02T08:47:55.432Z,9.50
2023-04-02T08:50:33.456Z,9.40
2023-04-02T08:53:06.628Z,9.50
2023-04-02T08:55:47.705Z,9.40
2023-04-02T08:58:26.625Z,9.50
2023-04-02T09:00:56.210Z,9.60
2023-04-02T09:03:34.887Z,9.60
2023-04-02T09:06:03.631Z,9.50
2023-04-02T09:08:32.577Z,9.40
2023-04-02T09:11:21.416Z,9.40
2023-04-02T09:13:54.564Z,9.40
2023-04-02T09:16:36.717Z,9.20
2023-04-02T09:19:21.748Z,9.20
2023-04-02T09:22:25.560Z,9.30
2023-04-02T09:24:57.268Z,9.30
2023-04-02T09:27:26.984Z,9.40
2023-04-02T09:29:57.630Z,9.30
2023-04-02T09:32:30.132Z,9.30
2023-04-02T09:35:27.322Z,9.40
2023-04-02T09:38:18.670Z,9.30
2023-04-02T09:40:51.620Z,9.10
2023-04-02T09:43:21.823Z,9.20
2023-04-02T09:46:15.482Z,9.10
2023-04-02T09:48:53.293Z,9.00
2023-04-02T09:51:26.500Z,8.90
2023-04-02T09:54:02.389Z,9.00
2023-04-02T09:56:30.522Z,8.70
2023-04-02T09:59:05.603Z,8.80
2023-04-02T10:01:33.794Z,8.70
2023-04-02T10:04:03.371Z,8.80
2023-04-02T10:06:31.295Z,8.90
2023-04-02T10:08:58.290Z,8.90
2023-04-02T10:11:46.437Z,8.90
2023-04-02T10:14:22.019Z,9.00
2023-04-02T10:16:56.736Z,9.10
2023-04-02T10:19:40.286Z,9.30
2023-04-02T10:22:14.920Z,9.30
2023-04-02T10:24:41.546Z,9.30
2023-04-02T10:27:37.596Z,9.20
2023-04-02T10:30:33.725Z,9.10
2023-04-02T10:33:07.251Z,9.20
2023-04-02T10:35:51.610Z,9.10
2023-04-02T10:38:33.363Z,9.10
2023-04-02T10:41:11.703Z,9.10
2023-04-02T10:44:19.938Z,9.10
2023-04-02T10:47:15.734Z,9.20
2023-04-02T10:49:52.918Z,9.00
2023-04-02T10:52:19.608Z,9.00
2023-04-02T10:54:54.098Z,9.00
2023-04-02T10:57:40.486Z,9.10
2023-04-02T11:00:15.917Z,9.00
2023-04-02T11:03:05.996Z,9.10
2023-04-02T11:05:52.195Z,9.30
2023-04-02T11:08:36.955Z,9.50
2023-04-02T11:11:23.288Z,9.50
2023-04-02T11:14:00.496Z,9.40
2023-04-02T11:16:27.811Z,9.30
2023-04-02T11:19:14.430Z,9.40
2023-04-02T11:21:57.101Z,9.40
2023-04-02T11:24:32.754Z,9.40
2023-04-02T11:27:11.392Z,9.40
2023-04-02T11:29:45.536Z,9.40
2023-04-02T11:32:25.225Z,9.30
2023-04-02T11:35:05.694Z,9.40
2023-04-02T11:37:46.067Z,9.30
2023-04-02T11:40:13.917Z,9.40
2023-04-02T11:42:45.745Z,9.50
2023-04-02T11:45:21.423Z,9.70
2023-04-02T11:48:00.818Z,9.70
2023-04-02T11:50:36.389Z,9.40
2023-04-02T11:53:04.897Z,9.10
2023-04-02T11:55:35.950Z,9.10
2023-04-02T11:58:30.472Z,8.80
2023-04-02T12:01:15.464Z,8.60
2023-04-02T12:03:47.923Z,8.70
2023-04-02T12:06:52.200Z,8.60
2023-04-02T12:09:27.186Z,8.80
2023-04-02T12:11:57.857Z,8.90
2023-04-02T12:14:36.373Z,9.00
2023-04-02T12:17:07.742Z,8.80
2023-04-02T12:19:36.062Z,8.70
2023-04-02T12:22:02.895Z,8.70
2023-04-02T12:24:31.363Z,8.80
2023-04-02T12:27:27.511Z,8.90
2023-04-02T12:29:56.306Z,9.10
2023-04-02T12:32:30.297Z,9.20
2023-04-02T12:34:59.061Z,9.30
2023-04-02T12:37:28.461Z,9.30
2023-04-02T12:39:58.428Z,9.30
2023-04-02T12:42:34.729Z,9.30
2023-04-02T12:45:02.972Z,9.10
2023-04-02T12:47:30.257Z,8.80
2023-04-02T12:49:58.998Z,8.80
2023-04-02T12:52:28.932Z,8.80
2023-04-02T12:55:01.167Z,8.90
2023-04-02T12:57:28.830Z,8.70
2023-04-02T12:59:57.744Z,8.60
2023-04-02T13:02:25.696Z,8.70
2023-04-02T13:04:55.844Z,8.30
2023-04-02T13:07:26.269Z,8.10
2023-04-02T13:09:55.480Z,8.00
2023-04-02T13:12:26.457Z,7.70
2023-04-02T13:14:58.016Z,7.60
2023-04-02T13:17:47.740Z,7.60
2023-04-02T13:20:38.195Z,7.70
2023-04-02T13:23:29.906Z,7.70
2023-04-02T13:25:58.444Z,7.70
2023-04-02T13:28:25.374Z,7.80
2023-04-02T13:30:52.003Z,7.60
2023-04-02T13:33:18.970Z,7.60
2023-04-02T13:35:45.770Z,7.60
2023-04-02T13:38:12.778Z,7.70
2023-04-02T13:40:39.979Z,7.80
2023-04-02T13:43:08.010Z,7.80
2023-04-02T13:45:38.909Z,7.90
2023-04-02T13:48:06.525Z,7.70
2023-04-02T13:50:35.163Z,7.60
2023-04-02T13:53:10.447Z,7.60
2023-04-02T13:55:40.573Z,7.50
2023-04-02T13:58:07.256Z,7.40
2023-04-02T14:00:37.560Z,7.30
2023-04-02T14:03:11.843Z,7.40
2023-04-02T14:06:02.897Z,7.40
2023-04-02T14:08:54.443Z,7.50
2023-04-02T14:11:45.147Z,7.70
2023-04-02T14:14:29.867Z,7.90
2023-04-02T14:17:24.498Z,7.90
2023-04-02T14:20:16.943Z,8.00
2023-04-02T14:23:01.680Z,8.10
2023-04-02T14:25:45.216Z,7.80
2023-04-02T14:28:27.108Z,7.60
2023-04-02T14:31:20.626Z,7.60
2023-04-02T14:33:56.344Z,7.70
2023-04-02T14:36:34.453Z,7.60
2023-04-02T14:39:24.985Z,7.60
2023-04-02T14:42:13.641Z,7.60
2023-04-02T14:45:03.727Z,7.60
2023-04-02T14:47:50.437Z,7.80
2023-04-02T14:50:23.030Z,7.70
2023-04-02T14:52:53.122Z,7.70
2023-04-02T14:55:32.837Z,7.60
2023-04-02T14:58:02.477Z,7.70
2023-04-02T15:00:38.369Z,7.70
2023-04-02T15:03:24.805Z,7.50
2023-04-02T15:06:03.322Z,7.50
2023-04-02T15:08:52.263Z,7.50
2023-04-02T15:11:38.534Z,7.50
2023-04-02T15:14:33.869Z,7.40
2023-04-02T15:17:00.664Z,7.40
2023-04-02T15:19:27.312Z,7.60
2023-04-02T15:21:57.144Z,7.40
2023-04-02T15:24:37.688Z,7.30
2023-04-02T15:27:24.589Z,7.00
2023-04-02T15:30:01.281Z,6.90
2023-04-02T15:32:33.922Z,6.90
2023-04-02T15:35:18.838Z,7.00
2023-04-02T15:37:59.407Z,6.90
2023-04-02T15:40:41.308Z,7.00
2023-04-02T15:43:29.207Z,7.00
2023-04-02T15:46:23.443Z,7.00
2023-04-02T15:49:10.152Z,7.00
2023-04-02T15:51:39.723Z,6.90
2023-04-02T15:54:46.541Z,6.90
2023-04-02T15:57:37.853Z,6.80
2023-04-02T16:00:28.073Z,6.90
2023-04-02T16:03:05.826Z,6.90
2023-04-02T16:05:38.892Z,7.00
2023-04-02T16:08:24.174Z,6.80
2023-04-02T16:10:50.888Z,6.70
2023-04-02T16:13:26.823Z,6.70
2023-04-02T16:16:14.422Z,6.70
2023-04-02T16:18:53.545Z,6.40
2023-04-02T16:21:23.641Z,6.40
2023-04-02T16:23:51.628Z,6.50
2023-04-02T16:26:36.757Z,6.50
2023-04-02T16:29:03.392Z,6.40
2023-04-02T16:31:52.311Z,6.40
2023-04-02T16:34:35.338Z,6.50
2023-04-02T16:37:16.448Z,6.40
2023-04-02T16:40:16.361Z,6.30
2023-04-02T16:43:00.464Z,6.30
2023-04-02T16:45:49.067Z,6.20
2023-04-02T16:48:43.238Z,6.20
2023-04-02T16:51:33.460Z,6.10
2023-04-02T16:54:19.303Z,6.10
2023-04-02T16:57:19.952Z,6.20
2023-04-02T16:59:53.207Z,6.30
2023-04-02T17:02:39.832Z,6.20
2023-04-02T17:05:32.613Z,6.20
2023-04-02T17:08:03.046Z,6.10
2023-04-02T17:10:40.234Z,6.00
2023-04-02T17:13:33.147Z,6.10
2023-04-02T17:16:06.087Z,6.00
2023-04-02T17:18:34.000Z,6.00
2023-04-02T17:21:09.906Z,5.90
2023-04-02T17:24:17.238Z,5.90
2023-04-02T17:26:47.652Z,5.90
2023-04-02T17:29:23.512Z,5.90
2023-04-02T17:31:51.863Z,5.90
2023-04-02T17:34:22.752Z,5.80
2023-04-02T17:37:10.444Z,5.90
2023-04-02T17:39:52.896Z,5.90
2023-04-02T17:42:34.824Z,6.00
2023-04-02T17:45:14.924Z,6.00
2023-04-02T17:47:59.218Z,5.90
2023-04-02T17:50:35.355Z,5.90
2023-04-02T17:53:12.322Z,5.90
2023-04-02T17:55:54.093Z,5.90
2023-04-02T17:58:39.117Z,5.90
2023-04-02T18:01:30.364Z,6.00
2023-04-02T18:04:29.814Z,6.00
2023-04-02T18:07:34.869Z,6.00
2023-04-02T18:10:16.574Z,6.00
2023-04-02T18:12:51.951Z,6.00
2023-04-02T18:15:24.633Z,6.00
2023-04-02T18:17:58.441Z,6.00
2023-04-02T18:20:56.047Z,6.00
2023-04-02T18:23:48.673Z,5.90
2023-04-02T18:26:33.467Z,5.90
2023-04-02T18:29:22.026Z,5.90
2023-04-02T18:32:03.773Z,5.90
2023-04-02T18:34:44.897Z,6.00
2023-04-02T18:37:27.486Z,5.90
2023-04-02T18:39:57.153Z,6.00
2023-04-02T18:43:09.940Z,6.00
2023-04-02T18:45:48.577Z,6.00
2023-04-02T18:48:34.501Z,6.00
2023-04-02T18:51:04.774Z,6.00
2023-04-02T18:53:33.373Z,6.00
2023-04-02T18:56:07.335Z,6.00
2023-04-02T18:58:38.361Z,5.90
2023-04-02T19:01:09.072Z,5.90
2023-04-02T19:03:41.661Z,5.90
2023-04-02T19:06:21.082Z,5.90
2023-04-02T19:08:58.887Z,5.80
2023-04-02T19:11:31.079Z,5.80
2023-04-02T19:14:18.180Z,5.80
2023-04-02T19:16:53.893Z,5.70
2023-04-02T19:19:28.626Z,5.70
2023-04-02T19:22:13.493Z,5.70
2023-04-02T19:25:09.033Z,5.70
2023-04-02T19:28:06.649Z,5.70
2023-04-02T19:30:43.171Z,5.80
2023-04-02T19:33:23.565Z,5.90
2023-04-02T19:36:25.023Z,5.90
2023-04-02T19:38:57.887Z,5.90
2023-04-02T19:41:48.309Z,5.90
2023-04-02T19:44:16.332Z,5.90
2023-04-02T19:46:43.537Z,5.90
2023-04-02T19:49:28.666Z,5.90
2023-04-02T19:51:55.860Z,5.90
2023-04-02T19:54:22.762Z,5.90
2023-04-02T19:56:50.042Z,5.90
2023-04-02T19:59:18.491Z,5.90
2023-04-02T20:01:46.499Z,5.90
2023-04-02T20:04:13.838Z,6.00
2023-04-02T20:06:40.661Z,6.00
2023-04-02T20:09:08.541Z,6.00
2023-04-02T20:11:36.675Z,5.90
2023-04-02T20:14:03.749Z,5.90
2023-04-02T20:16:30.677Z,5.80
2023-04-02T20:18:58.133Z,5.80
2023-04-02T20:21:24.882Z,5.80
2023-04-02T20:23:55.553Z,5.70
2023-04-02T20:26:22.616Z,5.70
2023-04-02T20:28:49.540Z,5.60
2023-04-02T20:31:18.473Z,5.60
2023-04-02T20:33:45.601Z,5.60
2023-04-02T20:36:15.598Z,5.60
2023-04-02T20:38:43.358Z,5.60
2023-04-02T20:41:10.349Z,5.60
2023-04-02T20:43:40.355Z,5.60
2023-04-02T20:46:10.027Z,5.50
2023-04-02T20:48:37.879Z,5.50
2023-04-02T20:51:06.383Z,5.50
2023-04-02T20:53:34.893Z,5.50
2023-04-02T20:56:06.743Z,5.50
2023-04-02T20:58:35.211Z,5.50
2023-04-02T21:01:21.391Z,5.60
2023-04-02T21:03:49.002Z,5.60
2023-04-02T21:06:18.601Z,5.70
2023-04-02T21:08:45.449Z,5.70
2023-04-02T21:11:12.606Z,5.60
2023-04-02T21:13:42.386Z,5.60
2023-04-02T21:16:29.252Z,5.50
2023-04-02T21:18:58.452Z,5.60
2023-04-02T21:21:25.822Z,5.60
2023-04-02T21:24:01.178Z,5.60
2023-04-02T21:26:29.389Z,5.60
2023-04-02T21:28:56.298Z,5.60
2023-04-02T21:31:28.491Z,5.60
2023-04-02T21:33:57.543Z,5.60
2023-04-02T21:36:40.008Z,5.70
2023-04-02T21:39:21.425Z,5.70
2023-04-02T21:41:50.502Z,5.70
2023-04-02T21:44:19.497Z,5.70
2023-04-02T21:46:46.467Z,5.70
2023-04-02T21:49:16.195Z,5.60
2023-04-02T21:51:45.486Z,5.60
2023-04-02T21:54:12.275Z,5.60
2023-04-02T21:56:41.346Z,5.60
2023-04-02T21:59:09.851Z,5.50
2023-04-02T22:01:39.247Z,5.50
2023-04-02T22:04:08.280Z,5.40
2023-04-02T22:06:40.354Z,5.50
2023-04-02T22:09:12.666Z,5.40
2023-04-02T22:11:42.886Z,5.40
2023-04-02T22:14:10.243Z,5.40
2023-04-02T22:16:37.744Z,5.40
2023-04-02T22:19:07.803Z,5.40
2023-04-02T22:21:35.628Z,5.30
2023-04-02T22:24:04.405Z,5.30
2023-04-02T22:26:32.720Z,5.30
2023-04-02T22:29:00.346Z,5.30
2023-04-02T22:31:29.398Z,5.30
2023-04-02T22:33:57.561Z,5.30
2023-04-02T22:36:26.431Z,5.30
2023-04-02T22:38:53.458Z,5.20
2023-04-02T22:41:23.120Z,5.20
2023-04-02T22:43:50.226Z,5.20
2023-04-02T22:46:18.426Z,5.20
2023-04-02T22:48:46.373Z,5.20
2023-04-02T22:51:14.965Z,5.20
2023-04-02T22:53:42.999Z,5.20
2023-04-02T22:56:13.051Z,5.20
2023-04-02T22:58:40.161Z,5.10
2023-04-02T23:01:16.647Z,5.10
2023-04-02T23:03:44.001Z,5.10
2023-04-02T23:06:13.797Z,5.10
2023-04-02T23:08:41.450Z,5.10
2023-04-02T23:11:09.968Z,5.10
2023-04-02T23:13:37.518Z,5.10
2023-04-02T23:16:07.449Z,5.20
2023-04-02T23:18:35.690Z,5.20
2023-04-02T23:21:03.305Z,5.20
2023-04-02T23:23:30.469Z,5.20
2023-04-02T23:26:03.235Z,5.20
2023-04-02T23:28:30.177Z,5.20
2023-04-02T23:30:57.043Z,5.10
2023-04-02T23:33:23.703Z,5.10
2023-04-02T23:35:50.376Z,5.00
2023-04-02T23:38:17.024Z,4.90
2023-04-02T23:40:43.697Z,4.90
2023-04-02T23:43:10.502Z,5.00
2023-04-02T23:45:37.204Z,5.00
2023-04-02T23:48:04.610Z,5.00
2023-04-02T23:50:31.282Z,5.00
2023-04-02T23:52:57.962Z,5.00
2023-04-02T23:55:24.679Z,4.90
2023-04-02T23:57:51.445Z,4.90
